This is the latest recevied weather packets stored in our database for station/object KF4CQ. If no packets are shown the sender has not sent any weather packets the latest 10 day(s).
| Time | Temp. | Humidity | Pressure | Rain* | Wind** | Luminosity | Snow |
|---|---|---|---|---|---|---|---|
| 1777401611 | 28.89° C | 63% | 1021.1 hPa | 0 mm | - | 678 W/m² | - |
| 1777401309 | 29.44° C | 62% | 1021 hPa | 0 mm | - | 124 W/m² | - |
| 1777401004 | 29.44° C | 61% | 1020.9 hPa | 0 mm | - | 120 W/m² | - |
| 1777400699 | 30° C | 59% | 1020.7 hPa | 0 mm | - | 161 W/m² | - |
| 1777400397 | 31.67° C | 58% | 1020.9 hPa | 0 mm | - | 261 W/m² | - |
| 1777400092 | 29.44° C | 61% | 1021 hPa | 0 mm | - | 895 W/m² | - |
| 1777399790 | 28.89° C | 63% | 1020.8 hPa | 0 mm | - | 181 W/m² | - |
| 1777399486 | 29.44° C | 62% | 1020.9 hPa | 0 mm | - | 168 W/m² | - |
| 1777399184 | 30° C | 61% | 1020.8 hPa | 0 mm | - | 132 W/m² | - |
| 1777398881 | 30.56° C | 58% | 1021 hPa | 0 mm | - | 134 W/m² | - |
| 1777398578 | 29.44° C | 60% | 1020.9 hPa | 0 mm | - | 699 W/m² | - |
| 1777398274 | 30.56° C | 58% | 1020.8 hPa | 0 mm | - | 262 W/m² | - |
| 1777397972 | 28.89° C | 61% | 1020.8 hPa | 0 mm | - | 269 W/m² | - |
| 1777397667 | 28.89° C | 62% | 1020.9 hPa | 0 mm | - | 182 W/m² | - |
| 1777397363 | 30.56° C | 58% | 1020.8 hPa | 0 mm | - | 585 W/m² | - |
| 1777397060 | 28.33° C | 65% | 1021 hPa | 0 mm | - | 918 W/m² | - |
| 1777396757 | 30° C | 62% | 1021 hPa | 0 mm | - | 933 W/m² | - |
| 1777396454 | 28.89° C | 64% | 1021.2 hPa | 0 mm | - | 959 W/m² | - |
| 1777396150 | 30° C | 63% | 1021 hPa | 0 mm | - | 258 W/m² | - |
| 1777395846 | 29.44° C | 64% | 1021.3 hPa | 0 mm | - | 884 W/m² | - |
| 1777395542 | 29.44° C | 64% | 1021 hPa | 0 mm | - | 293 W/m² | - |
| 1777395238 | 27.78° C | 70% | 1021.3 hPa | 0 mm | - | 281 W/m² | - |
| 1777394936 | 28.89° C | 67% | 1021.1 hPa | 0 mm | - | 164 W/m² | - |
| 1777394632 | 28.33° C | 67% | 1021.4 hPa | 0 mm | - | 865 W/m² | - |
| 1777394329 | 29.44° C | 68% | 1021.3 hPa | 0 mm | - | 340 W/m² | - |
* Rain latest hour (hover to see other rain measurements)
** Current wind speed in m/s (hover to see current wind gust speed)